Terminal Aerodrome Forecast
Issued by NWS Dallas/Fort Worth, TX

Home | Current Version | Previous Version | Text Only | Print | Product List | Glossary On
Versions: 1 2 3 4 5 6 7 8 9 10 11 12 13 14 15 16 17 18 19 20 21 22 23 24 25 26 27 28 29 30 31 32 33 34 35 36 37 38 39 40
000
FTUS44 KFWD 040300 AAB
TAFACT
TAF AMD
KACT 040300Z 0403/0424 09004KT 2SM BR OVC008
     FM041100 16006KT 2SM -RA OVC005
     FM041600 36014G24KT 2SM -RA OVC007=

USA.gov is the U.S. government's official web portal to all federal, state and local government web resources and services.